createdAt,value
2023-05-10T00:00:34.460Z,13.89
2023-05-10T00:03:01.521Z,14.07
2023-05-10T00:05:28.484Z,13.95
2023-05-10T00:07:55.488Z,13.94
2023-05-10T00:10:22.371Z,14.00
2023-05-10T00:12:49.271Z,13.94
2023-05-10T00:15:16.341Z,13.90
2023-05-10T00:17:43.275Z,13.85
2023-05-10T00:20:11.615Z,13.88
2023-05-10T00:22:38.526Z,13.92
2023-05-10T00:25:06.618Z,13.82
2023-05-10T00:27:33.844Z,13.87
2023-05-10T00:30:00.695Z,13.78
2023-05-10T00:32:27.618Z,13.88
2023-05-10T00:34:54.490Z,13.86
2023-05-10T00:37:21.373Z,13.82
2023-05-10T00:39:48.230Z,13.69
2023-05-10T00:42:15.144Z,13.73
2023-05-10T00:44:42.025Z,13.73
2023-05-10T00:47:09.445Z,13.72
2023-05-10T00:49:37.041Z,13.72
2023-05-10T00:52:04.302Z,13.76
2023-05-10T00:54:31.653Z,13.70
2023-05-10T00:56:58.621Z,13.58
2023-05-10T00:59:26.473Z,13.58
2023-05-10T01:01:53.548Z,13.38
2023-05-10T01:04:22.925Z,13.52
2023-05-10T01:06:49.774Z,13.31
2023-05-10T01:09:16.739Z,13.20
2023-05-10T01:11:43.622Z,13.19
2023-05-10T01:14:11.162Z,13.27
2023-05-10T01:16:40.535Z,13.32
2023-05-10T01:19:25.483Z,13.35
2023-05-10T01:22:23.941Z,13.27
2023-05-10T01:24:57.459Z,13.19
2023-05-10T01:27:51.746Z,13.17
2023-05-10T01:30:41.837Z,13.14
2023-05-10T01:33:32.041Z,13.13
2023-05-10T01:36:16.489Z,13.12
2023-05-10T01:38:51.744Z,13.20
2023-05-10T01:41:44.323Z,13.19
2023-05-10T01:44:26.203Z,13.17
2023-05-10T01:47:06.329Z,13.12
2023-05-10T01:49:44.813Z,13.07
2023-05-10T01:52:15.645Z,13.16
2023-05-10T01:54:49.092Z,13.09
2023-05-10T01:57:18.335Z,13.13
2023-05-10T01:59:50.237Z,13.12
2023-05-10T02:02:20.217Z,13.09
2023-05-10T02:04:49.573Z,13.05
2023-05-10T02:07:17.579Z,13.12
2023-05-10T02:09:49.530Z,13.14
2023-05-10T02:12:17.684Z,13.12
2023-05-10T02:14:46.474Z,13.01
2023-05-10T02:17:14.012Z,12.94
2023-05-10T02:19:43.456Z,13.03
2023-05-10T02:22:11.396Z,13.00
2023-05-10T02:24:40.081Z,12.84
2023-05-10T02:27:08.050Z,12.85
2023-05-10T02:29:35.723Z,12.82
2023-05-10T02:32:03.964Z,12.77
2023-05-10T02:34:31.427Z,12.67
2023-05-10T02:37:00.058Z,12.68
2023-05-10T02:39:29.771Z,12.74
2023-05-10T02:41:58.267Z,12.76
2023-05-10T02:44:26.348Z,12.77
2023-05-10T02:46:53.232Z,12.61
2023-05-10T02:49:20.884Z,12.49
2023-05-10T02:51:53.111Z,12.61
2023-05-10T02:54:24.300Z,12.39
2023-05-10T02:57:00.632Z,12.68
2023-05-10T02:59:28.329Z,12.53
2023-05-10T03:01:55.344Z,12.47
2023-05-10T03:04:22.782Z,12.43
2023-05-10T03:06:49.851Z,12.45
2023-05-10T03:09:16.845Z,12.44
2023-05-10T03:12:04.395Z,12.45
2023-05-10T03:15:07.430Z,12.43
2023-05-10T03:17:52.333Z,12.40
2023-05-10T03:20:47.594Z,12.41
2023-05-10T03:23:36.635Z,12.32
2023-05-10T03:26:04.458Z,12.28
2023-05-10T03:28:32.772Z,12.23
2023-05-10T03:31:00.910Z,12.25
2023-05-10T03:33:27.996Z,12.25
2023-05-10T03:35:54.904Z,12.24
2023-05-10T03:38:21.787Z,12.02
2023-05-10T03:40:48.666Z,12.14
2023-05-10T03:43:15.630Z,12.09
2023-05-10T03:45:42.488Z,12.11
2023-05-10T03:48:09.410Z,12.13
2023-05-10T03:50:36.308Z,12.08
2023-05-10T03:53:03.530Z,12.11
2023-05-10T03:55:30.684Z,12.08
2023-05-10T03:57:57.527Z,12.17
2023-05-10T04:00:24.632Z,12.06
2023-05-10T04:02:51.551Z,12.09
2023-05-10T04:05:18.587Z,12.10
2023-05-10T04:07:45.557Z,12.09
2023-05-10T04:10:12.698Z,12.15
2023-05-10T04:12:39.635Z,12.19
2023-05-10T04:15:07.989Z,12.00
2023-05-10T04:17:35.067Z,11.99
2023-05-10T04:20:02.099Z,12.03
2023-05-10T04:22:30.261Z,11.92
2023-05-10T04:24:57.175Z,11.99
2023-05-10T04:27:24.110Z,11.96
2023-05-10T04:29:51.408Z,12.05
2023-05-10T04:32:18.403Z,11.99
2023-05-10T04:34:45.418Z,12.05
2023-05-10T04:37:12.298Z,12.05
2023-05-10T04:39:40.984Z,12.04
2023-05-10T04:42:09.229Z,11.91
2023-05-10T04:44:36.782Z,12.07
2023-05-10T04:47:04.270Z,12.13
2023-05-10T04:49:31.257Z,12.11
2023-05-10T04:51:58.096Z,11.99
2023-05-10T04:54:25.562Z,12.05
2023-05-10T04:56:52.566Z,11.94
2023-05-10T04:59:20.239Z,11.88
2023-05-10T05:01:47.106Z,11.95
2023-05-10T05:04:13.984Z,11.94
2023-05-10T05:06:40.838Z,11.98
2023-05-10T05:09:07.784Z,11.93
2023-05-10T05:11:34.748Z,12.04
2023-05-10T05:14:01.662Z,12.02
2023-05-10T05:16:28.572Z,11.99
2023-05-10T05:18:55.506Z,12.04
2023-05-10T05:21:22.729Z,12.15
2023-05-10T05:23:49.580Z,12.08
2023-05-10T05:26:17.150Z,12.14
2023-05-10T05:28:44.196Z,12.19
2023-05-10T05:31:11.234Z,12.25
2023-05-10T05:33:38.515Z,12.23
2023-05-10T05:36:07.050Z,12.38
2023-05-10T05:38:34.342Z,12.40
2023-05-10T05:41:01.454Z,12.41
2023-05-10T05:43:28.369Z,12.43
2023-05-10T05:45:55.437Z,12.49
2023-05-10T05:48:22.561Z,12.43
2023-05-10T05:50:49.435Z,12.52
2023-05-10T05:53:16.996Z,12.56
2023-05-10T05:55:58.317Z,12.75
2023-05-10T05:58:26.451Z,12.61
2023-05-10T06:00:53.917Z,12.76
2023-05-10T06:03:21.272Z,12.68
2023-05-10T06:05:48.408Z,12.78
2023-05-10T06:08:15.250Z,12.75
2023-05-10T06:10:42.120Z,12.80
2023-05-10T06:13:09.108Z,12.82
2023-05-10T06:15:36.105Z,12.88
2023-05-10T06:18:03.060Z,12.96
2023-05-10T06:20:30.138Z,12.93
2023-05-10T06:22:57.025Z,12.76
2023-05-10T06:25:23.870Z,13.04
2023-05-10T06:27:53.673Z,12.99
2023-05-10T06:30:21.369Z,12.93
2023-05-10T06:32:48.373Z,13.03
2023-05-10T06:35:15.509Z,13.09
2023-05-10T06:37:42.572Z,13.11
2023-05-10T06:40:10.546Z,13.20
2023-05-10T06:42:37.499Z,13.26
2023-05-10T06:45:05.014Z,13.31
2023-05-10T06:47:31.950Z,13.27
2023-05-10T06:49:58.886Z,13.33
2023-05-10T06:52:25.806Z,13.24
2023-05-10T06:54:52.639Z,13.29
2023-05-10T06:57:30.611Z,13.35
2023-05-10T06:59:59.732Z,13.27
2023-05-10T07:02:26.750Z,13.44
2023-05-10T07:04:53.905Z,13.44
2023-05-10T07:07:20.895Z,13.42
2023-05-10T07:09:47.873Z,13.43
2023-05-10T07:12:16.088Z,13.39
2023-05-10T07:14:43.754Z,13.45
2023-05-10T07:17:11.187Z,13.48
2023-05-10T07:19:38.193Z,13.54
2023-05-10T07:22:05.149Z,13.65
2023-05-10T07:24:33.562Z,13.65
2023-05-10T07:27:00.558Z,13.69
2023-05-10T07:29:27.665Z,13.68
2023-05-10T07:31:57.106Z,13.69
2023-05-10T07:34:25.665Z,13.80
2023-05-10T07:36:53.332Z,13.83
2023-05-10T07:39:27.476Z,13.81
2023-05-10T07:41:56.279Z,13.79
2023-05-10T07:44:23.572Z,13.86
2023-05-10T07:46:50.949Z,13.86
2023-05-10T07:49:18.103Z,14.00
2023-05-10T07:51:45.014Z,13.95
2023-05-10T07:54:11.995Z,14.01
2023-05-10T07:56:39.126Z,14.06
2023-05-10T07:59:08.963Z,14.15
2023-05-10T08:01:37.183Z,14.09
2023-05-10T08:04:04.287Z,14.06
2023-05-10T08:06:31.513Z,14.05
2023-05-10T08:08:58.619Z,14.16
2023-05-10T08:11:26.077Z,14.09
2023-05-10T08:13:54.066Z,14.07
2023-05-10T08:16:21.759Z,14.01
2023-05-10T08:18:50.365Z,14.10
2023-05-10T08:21:17.595Z,14.08
2023-05-10T08:23:45.277Z,14.00
2023-05-10T08:26:12.674Z,14.08
2023-05-10T08:28:39.752Z,14.09
2023-05-10T08:31:07.030Z,14.26
2023-05-10T08:33:34.257Z,14.26
2023-05-10T08:36:01.188Z,14.38
2023-05-10T08:38:28.301Z,14.41
2023-05-10T08:40:59.948Z,14.37
2023-05-10T08:43:32.407Z,14.29
2023-05-10T08:46:04.226Z,14.25
2023-05-10T08:48:32.366Z,14.20
2023-05-10T08:51:01.192Z,14.17
2023-05-10T08:53:30.264Z,14.16
2023-05-10T08:55:59.087Z,14.15
2023-05-10T08:58:26.543Z,14.20
2023-05-10T09:00:54.182Z,14.09
2023-05-10T09:03:21.090Z,14.05
2023-05-10T09:05:51.812Z,14.08
2023-05-10T09:08:18.962Z,14.07
2023-05-10T09:10:48.406Z,13.99
2023-05-10T09:13:16.634Z,13.90
2023-05-10T09:15:45.536Z,13.80
2023-05-10T09:18:13.241Z,13.51
2023-05-10T09:20:40.323Z,13.21
2023-05-10T09:23:07.876Z,13.38
2023-05-10T09:25:34.994Z,13.43
2023-05-10T09:28:02.010Z,13.49
2023-05-10T09:30:32.401Z,13.53
2023-05-10T09:33:01.088Z,13.55
2023-05-10T09:35:30.700Z,13.53
2023-05-10T09:38:01.846Z,13.44
2023-05-10T09:40:30.818Z,13.48
2023-05-10T09:43:08.007Z,13.51
2023-05-10T09:45:38.514Z,13.52
2023-05-10T09:48:07.188Z,13.66
2023-05-10T09:50:35.453Z,13.82
2023-05-10T09:53:04.762Z,13.98
2023-05-10T09:56:05.244Z,14.02
2023-05-10T09:58:32.093Z,14.04
2023-05-10T10:01:01.867Z,14.16
2023-05-10T10:03:30.958Z,13.95
2023-05-10T10:05:58.193Z,14.07
2023-05-10T10:08:25.629Z,14.08
2023-05-10T10:10:52.543Z,14.17
2023-05-10T10:13:19.744Z,14.29
2023-05-10T10:15:48.035Z,14.35
2023-05-10T10:18:18.760Z,14.48
2023-05-10T10:20:46.555Z,14.65
2023-05-10T10:23:15.166Z,14.50
2023-05-10T10:25:45.618Z,14.50
2023-05-10T10:29:03.008Z,14.33
2023-05-10T10:31:43.250Z,14.31
2023-05-10T10:34:14.223Z,14.65
2023-05-10T10:36:46.564Z,14.74
2023-05-10T10:39:13.968Z,14.61
2023-05-10T10:41:51.705Z,14.75
2023-05-10T10:44:25.669Z,14.95
2023-05-10T10:47:24.309Z,15.05
2023-05-10T10:50:10.031Z,14.82
2023-05-10T10:52:39.420Z,15.14
2023-05-10T10:55:31.102Z,15.01
2023-05-10T10:58:07.199Z,14.86
2023-05-10T11:00:38.050Z,15.26
2023-05-10T11:03:14.605Z,15.31
2023-05-10T11:05:45.830Z,15.36
2023-05-10T11:08:28.661Z,15.37
2023-05-10T11:11:01.388Z,15.54
2023-05-10T11:13:51.409Z,15.52
2023-05-10T11:16:26.060Z,15.75
2023-05-10T11:19:04.992Z,15.57
2023-05-10T11:21:33.817Z,15.83
2023-05-10T11:24:02.430Z,15.91
2023-05-10T11:26:36.327Z,15.91
2023-05-10T11:29:05.604Z,15.92
2023-05-10T11:31:32.517Z,15.93
2023-05-10T11:34:02.867Z,15.88
2023-05-10T11:36:34.595Z,16.01
2023-05-10T11:39:01.795Z,16.18
2023-05-10T11:41:31.379Z,16.27
2023-05-10T11:43:59.638Z,15.85
2023-05-10T11:46:28.779Z,15.88
2023-05-10T11:49:02.744Z,16.12
2023-05-10T11:51:29.790Z,15.58
2023-05-10T11:53:58.475Z,15.66
2023-05-10T11:56:27.440Z,15.22
2023-05-10T11:58:59.773Z,14.88
2023-05-10T12:01:28.644Z,14.83
2023-05-10T12:04:01.748Z,14.67
2023-05-10T12:06:32.937Z,14.48
2023-05-10T12:09:00.799Z,14.53
2023-05-10T12:11:29.802Z,14.22
2023-05-10T12:13:57.821Z,14.39
2023-05-10T12:16:27.306Z,14.23
2023-05-10T12:18:58.975Z,14.53
2023-05-10T12:21:26.743Z,14.61
2023-05-10T12:23:59.850Z,14.50
2023-05-10T12:26:27.720Z,14.43
2023-05-10T12:28:55.559Z,14.34
2023-05-10T12:31:22.560Z,14.22
2023-05-10T12:33:50.526Z,14.43
2023-05-10T12:36:19.127Z,14.23
2023-05-10T12:38:49.643Z,14.47
2023-05-10T12:41:18.822Z,14.48
2023-05-10T12:43:49.454Z,14.43
2023-05-10T12:46:18.847Z,14.32
2023-05-10T12:49:07.665Z,14.55
2023-05-10T12:51:36.136Z,14.56
2023-05-10T12:54:04.860Z,14.57
2023-05-10T12:56:31.766Z,14.66
2023-05-10T12:58:58.641Z,14.66
2023-05-10T13:01:25.629Z,14.61
2023-05-10T13:03:52.489Z,14.68
2023-05-10T13:06:19.426Z,14.71
2023-05-10T13:08:46.293Z,14.58
2023-05-10T13:11:17.678Z,14.66
2023-05-10T13:13:44.549Z,14.75
2023-05-10T13:16:11.412Z,14.97
2023-05-10T13:18:38.344Z,15.08
2023-05-10T13:21:06.577Z,15.17
2023-05-10T13:23:33.533Z,15.27
2023-05-10T13:26:03.102Z,15.15
2023-05-10T13:28:30.735Z,15.23
2023-05-10T13:30:57.672Z,15.41
2023-05-10T13:33:24.680Z,15.51
2023-05-10T13:35:52.763Z,15.35
2023-05-10T13:38:22.399Z,15.40
2023-05-10T13:40:49.483Z,15.67
2023-05-10T13:43:16.461Z,15.74
2023-05-10T13:45:43.408Z,15.82
2023-05-10T13:48:10.318Z,15.59
2023-05-10T13:50:37.284Z,15.85
2023-05-10T13:53:04.149Z,16.07
2023-05-10T13:55:31.835Z,16.16
2023-05-10T13:57:59.170Z,16.20
2023-05-10T14:00:26.160Z,16.38
2023-05-10T14:02:53.069Z,16.47
2023-05-10T14:05:24.058Z,16.47
2023-05-10T14:07:52.914Z,16.41
2023-05-10T14:10:19.843Z,16.66
2023-05-10T14:12:46.914Z,16.49
2023-05-10T14:15:13.878Z,16.58
2023-05-10T14:17:40.863Z,16.45
2023-05-10T14:20:08.860Z,16.71
2023-05-10T14:22:36.536Z,16.77
2023-05-10T14:25:03.511Z,16.75
2023-05-10T14:27:31.455Z,16.62
2023-05-10T14:29:58.381Z,16.78
2023-05-10T14:32:25.335Z,16.69
2023-05-10T14:34:52.265Z,16.86
2023-05-10T14:37:19.110Z,17.05
2023-05-10T14:39:45.941Z,16.86
2023-05-10T14:42:13.178Z,16.92
2023-05-10T14:44:40.049Z,16.95
2023-05-10T14:47:06.955Z,16.97
2023-05-10T14:49:33.806Z,17.03
2023-05-10T14:52:00.736Z,16.88
2023-05-10T14:54:28.555Z,17.00
2023-05-10T14:56:55.407Z,16.83
2023-05-10T14:59:22.387Z,16.63
2023-05-10T15:01:49.563Z,16.64
2023-05-10T15:04:17.665Z,16.14
2023-05-10T15:06:45.440Z,16.29
2023-05-10T15:09:12.330Z,16.28
2023-05-10T15:11:39.186Z,16.22
2023-05-10T15:14:06.296Z,16.36
2023-05-10T15:16:35.861Z,16.27
2023-05-10T15:19:03.383Z,16.29
2023-05-10T15:21:31.964Z,16.19
2023-05-10T15:23:58.826Z,16.46
2023-05-10T15:26:27.413Z,16.42
2023-05-10T15:28:54.326Z,16.43
2023-05-10T15:31:21.310Z,16.18
2023-05-10T15:33:48.278Z,15.91
2023-05-10T15:36:15.214Z,16.08
2023-05-10T15:38:42.118Z,16.06
2023-05-10T15:41:08.996Z,15.90
2023-05-10T15:43:36.028Z,15.82
2023-05-10T15:46:03.686Z,15.56
2023-05-10T15:48:32.487Z,15.77
2023-05-10T15:50:59.497Z,15.88
2023-05-10T15:53:26.371Z,15.67
2023-05-10T15:55:53.243Z,15.65
2023-05-10T15:58:20.577Z,15.52
2023-05-10T16:00:47.685Z,15.15
2023-05-10T16:04:36.990Z,15.43
2023-05-10T16:07:04.097Z,14.83
2023-05-10T16:09:31.261Z,14.81
2023-05-10T16:11:58.385Z,14.65
2023-05-10T16:14:25.336Z,14.85
2023-05-10T16:16:52.526Z,14.66
2023-05-10T16:19:22.707Z,14.75
2023-05-10T16:21:50.639Z,14.73
2023-05-10T16:24:17.744Z,14.57
2023-05-10T16:26:45.064Z,14.63
2023-05-10T16:29:12.378Z,14.56
2023-05-10T16:31:42.486Z,14.80
2023-05-10T16:34:09.602Z,14.66
2023-05-10T16:36:36.893Z,14.48
2023-05-10T16:39:04.436Z,14.55
2023-05-10T16:41:35.052Z,14.30
2023-05-10T16:44:03.886Z,14.37
2023-05-10T16:46:31.342Z,14.32
2023-05-10T16:48:59.991Z,14.49
2023-05-10T16:51:28.050Z,14.48
2023-05-10T16:53:56.256Z,14.42
2023-05-10T16:56:23.666Z,14.50
2023-05-10T16:58:50.844Z,14.25
2023-05-10T17:01:19.537Z,14.26
2023-05-10T17:03:47.115Z,14.64
2023-05-10T17:06:14.487Z,14.43
2023-05-10T17:08:41.474Z,14.30
2023-05-10T17:11:08.539Z,14.44
2023-05-10T17:13:35.486Z,14.55
2023-05-10T17:16:04.022Z,14.49
2023-05-10T17:18:31.239Z,14.23
2023-05-10T17:20:58.423Z,14.40
2023-05-10T17:23:25.354Z,14.57
2023-05-10T17:25:52.286Z,14.38
2023-05-10T17:28:19.290Z,14.05
2023-05-10T17:30:46.253Z,14.16
2023-05-10T17:33:13.235Z,14.00
2023-05-10T17:35:40.236Z,14.16
2023-05-10T17:38:07.216Z,14.21
2023-05-10T17:40:34.216Z,14.04
2023-05-10T17:43:01.225Z,14.18
2023-05-10T17:45:28.261Z,14.12
2023-05-10T17:47:55.198Z,14.08
2023-05-10T17:50:22.198Z,14.25
2023-05-10T17:52:49.131Z,14.20
2023-05-10T17:55:16.453Z,14.17
2023-05-10T17:57:43.739Z,14.27
2023-05-10T18:00:11.627Z,14.30
2023-05-10T18:02:38.565Z,14.33
2023-05-10T18:05:06.210Z,14.29
2023-05-10T18:07:33.525Z,14.28
2023-05-10T18:10:01.276Z,14.21
2023-05-10T18:12:28.216Z,14.16
2023-05-10T18:14:55.044Z,14.13
2023-05-10T18:17:21.937Z,14.06
2023-05-10T18:19:48.954Z,14.03
2023-05-10T18:22:15.832Z,13.95
2023-05-10T18:24:43.033Z,13.90
2023-05-10T18:27:09.982Z,13.75
2023-05-10T18:29:37.325Z,13.77
2023-05-10T18:32:04.434Z,13.58
2023-05-10T18:34:31.278Z,13.56
2023-05-10T18:36:58.228Z,13.68
2023-05-10T18:39:25.173Z,13.65
2023-05-10T18:41:52.182Z,13.50
2023-05-10T18:44:19.294Z,13.43
2023-05-10T18:46:46.541Z,13.42
2023-05-10T18:49:13.559Z,13.30
2023-05-10T18:51:40.678Z,13.14
2023-05-10T18:54:07.690Z,13.12
2023-05-10T18:56:34.657Z,13.00
2023-05-10T18:59:01.702Z,12.93
2023-05-10T19:01:28.612Z,12.94
2023-05-10T19:03:55.525Z,12.83
2023-05-10T19:06:22.349Z,12.76
2023-05-10T19:08:50.533Z,12.72
2023-05-10T19:11:17.571Z,12.80
2023-05-10T19:13:45.553Z,12.81
2023-05-10T19:16:15.627Z,12.76
2023-05-10T19:18:44.739Z,12.80
2023-05-10T19:21:11.778Z,12.71
2023-05-10T19:23:43.071Z,12.69
2023-05-10T19:26:12.518Z,12.63
2023-05-10T19:28:39.388Z,12.52
2023-05-10T19:31:07.833Z,12.56
2023-05-10T19:33:36.175Z,12.49
2023-05-10T19:36:03.256Z,12.49
2023-05-10T19:38:30.268Z,12.51
2023-05-10T19:41:00.613Z,12.55
2023-05-10T19:43:29.580Z,12.43
2023-05-10T19:46:02.583Z,12.42
2023-05-10T19:48:29.837Z,12.42
2023-05-10T19:51:03.837Z,12.40
2023-05-10T19:53:31.915Z,12.38
2023-05-10T19:56:06.661Z,12.24
2023-05-10T19:58:34.272Z,12.24
2023-05-10T20:01:01.320Z,12.22
2023-05-10T20:03:28.752Z,12.23
2023-05-10T20:05:55.600Z,12.12
2023-05-10T20:08:22.462Z,12.14
2023-05-10T20:10:49.320Z,12.08
2023-05-10T20:13:16.162Z,11.93
2023-05-10T20:15:43.032Z,11.91
2023-05-10T20:18:10.300Z,11.89
2023-05-10T20:20:37.208Z,11.80
2023-05-10T20:23:04.192Z,11.77
2023-05-10T20:25:31.099Z,11.69
2023-05-10T20:27:58.017Z,11.79
2023-05-10T20:30:24.902Z,11.73
2023-05-10T20:32:52.061Z,11.64
2023-05-10T20:35:18.971Z,11.64
2023-05-10T20:37:45.929Z,11.55
2023-05-10T20:40:13.196Z,11.59
2023-05-10T20:42:40.021Z,11.45
2023-05-10T20:45:07.719Z,11.44
2023-05-10T20:47:35.696Z,11.58
2023-05-10T20:50:02.642Z,11.59
2023-05-10T20:52:29.471Z,11.49
2023-05-10T20:54:56.325Z,11.34
2023-05-10T20:57:23.177Z,11.49
2023-05-10T20:59:51.005Z,11.51
2023-05-10T21:02:17.961Z,11.40
2023-05-10T21:04:44.836Z,11.51
2023-05-10T21:07:12.413Z,11.41
2023-05-10T21:09:39.256Z,11.44
2023-05-10T21:12:06.537Z,11.44
2023-05-10T21:14:33.480Z,11.31
2023-05-10T21:17:00.314Z,11.34
2023-05-10T21:19:27.468Z,11.37
2023-05-10T21:21:56.304Z,11.38
2023-05-10T21:24:23.618Z,11.33
2023-05-10T21:26:50.539Z,11.33
2023-05-10T21:29:17.358Z,11.37
2023-05-10T21:31:44.207Z,11.28
2023-05-10T21:34:11.224Z,11.25
2023-05-10T21:36:38.056Z,11.23
2023-05-10T21:39:05.093Z,11.22
2023-05-10T21:41:31.995Z,11.28
2023-05-10T21:43:58.890Z,11.22
2023-05-10T21:46:25.829Z,11.23
2023-05-10T21:48:52.675Z,11.21
2023-05-10T21:51:19.836Z,11.24
2023-05-10T21:53:46.737Z,11.14
2023-05-10T21:56:13.842Z,11.20
2023-05-10T21:58:40.688Z,11.16
2023-05-10T22:01:07.719Z,11.10
2023-05-10T22:03:34.760Z,11.04
2023-05-10T22:06:01.741Z,10.99
2023-05-10T22:08:28.601Z,11.00
2023-05-10T22:10:55.581Z,10.91
2023-05-10T22:13:22.439Z,10.78
2023-05-10T22:15:49.521Z,10.75
2023-05-10T22:18:16.515Z,10.63
2023-05-10T22:20:46.752Z,10.72
2023-05-10T22:23:14.100Z,10.80
2023-05-10T22:25:40.935Z,10.76
2023-05-10T22:28:09.351Z,10.74
2023-05-10T22:30:36.338Z,10.68
2023-05-10T22:33:03.262Z,10.78
2023-05-10T22:35:30.297Z,10.84
2023-05-10T22:37:57.155Z,10.66
2023-05-10T22:40:24.053Z,10.77
2023-05-10T22:42:50.959Z,10.78
2023-05-10T22:45:17.817Z,10.69
2023-05-10T22:47:44.762Z,10.75
2023-05-10T22:50:12.546Z,10.76
2023-05-10T22:52:39.622Z,10.74
2023-05-10T22:55:07.553Z,10.71
2023-05-10T22:57:34.713Z,10.63
2023-05-10T23:00:04.617Z,10.70
2023-05-10T23:02:32.285Z,10.67
2023-05-10T23:04:59.558Z,10.65
2023-05-10T23:07:26.531Z,10.42
2023-05-10T23:09:53.369Z,10.61
2023-05-10T23:12:20.217Z,10.64
2023-05-10T23:14:47.822Z,10.55
2023-05-10T23:17:14.765Z,10.43
2023-05-10T23:19:41.654Z,10.42
2023-05-10T23:22:08.966Z,10.30
2023-05-10T23:24:36.276Z,10.05
2023-05-10T23:27:04.028Z,10.06
2023-05-10T23:29:32.227Z,10.18
2023-05-10T23:31:59.192Z,10.19
2023-05-10T23:34:26.179Z,10.09
2023-05-10T23:36:53.116Z,10.02
2023-05-10T23:39:19.936Z,9.96
2023-05-10T23:41:46.838Z,10.04
2023-05-10T23:44:13.727Z,9.98
2023-05-10T23:46:40.972Z,9.98
2023-05-10T23:49:07.871Z,10.03
2023-05-10T23:51:34.714Z,10.04
2023-05-10T23:54:02.243Z,9.90
2023-05-10T23:56:29.121Z,9.67
2023-05-10T23:58:55.995Z,9.84
